sensor_id;sensor_type;location;lat;lon;timestamp;temperature;humidity
7498;DHT22;3790;48.806;9.140;2023-04-15T00:04:30;4.50;99.90
7498;DHT22;3790;48.806;9.140;2023-04-15T00:09:32;4.50;99.90
7498;DHT22;3790;48.806;9.140;2023-04-15T00:14:34;4.40;99.90
7498;DHT22;3790;48.806;9.140;2023-04-15T00:19:35;4.40;99.90
7498;DHT22;3790;48.806;9.140;2023-04-15T00:24:37;4.30;99.90
7498;DHT22;3790;48.806;9.140;2023-04-15T00:29:37;4.40;99.90
7498;DHT22;3790;48.806;9.140;2023-04-15T00:34:38;4.30;99.90
7498;DHT22;3790;48.806;9.140;2023-04-15T00:39:38;4.20;99.90
7498;DHT22;3790;48.806;9.140;2023-04-15T00:44:39;4.00;99.90
7498;DHT22;3790;48.806;9.140;2023-04-15T00:49:40;3.90;99.90
7498;DHT22;3790;48.806;9.140;2023-04-15T00:54:40;3.70;99.90
7498;DHT22;3790;48.806;9.140;2023-04-15T00:59:41;3.70;99.90
7498;DHT22;3790;48.806;9.140;2023-04-15T01:04:41;3.70;99.90
7498;DHT22;3790;48.806;9.140;2023-04-15T01:09:42;3.60;99.90
7498;DHT22;3790;48.806;9.140;2023-04-15T01:14:43;3.70;99.90
7498;DHT22;3790;48.806;9.140;2023-04-15T01:19:44;3.60;99.90
7498;DHT22;3790;48.806;9.140;2023-04-15T01:25:04;3.60;99.90
7498;DHT22;3790;48.806;9.140;2023-04-15T01:30:07;3.40;99.90
7498;DHT22;3790;48.806;9.140;2023-04-15T01:35:08;3.30;99.90
7498;DHT22;3790;48.806;9.140;2023-04-15T01:40:09;3.20;99.90
7498;DHT22;3790;48.806;9.140;2023-04-15T01:45:10;3.10;99.90
7498;DHT22;3790;48.806;9.140;2023-04-15T01:50:10;3.10;99.90
7498;DHT22;3790;48.806;9.140;2023-04-15T01:55:11;3.20;99.90
7498;DHT22;3790;48.806;9.140;2023-04-15T02:00:12;3.20;99.90
7498;DHT22;3790;48.806;9.140;2023-04-15T02:05:12;3.20;99.90
7498;DHT22;3790;48.806;9.140;2023-04-15T02:10:13;3.10;99.90
7498;DHT22;3790;48.806;9.140;2023-04-15T02:15:15;2.90;99.90
7498;DHT22;3790;48.806;9.140;2023-04-15T02:20:18;2.90;99.90
7498;DHT22;3790;48.806;9.140;2023-04-15T02:25:18;3.00;99.90
7498;DHT22;3790;48.806;9.140;2023-04-15T02:30:19;3.00;99.90
7498;DHT22;3790;48.806;9.140;2023-04-15T02:35:23;2.90;99.90
7498;DHT22;3790;48.806;9.140;2023-04-15T02:40:25;3.10;99.90
7498;DHT22;3790;48.806;9.140;2023-04-15T02:45:26;3.20;99.90
7498;DHT22;3790;48.806;9.140;2023-04-15T02:50:27;3.40;99.90
7498;DHT22;3790;48.806;9.140;2023-04-15T02:55:28;3.20;99.90
7498;DHT22;3790;48.806;9.140;2023-04-15T03:00:28;3.10;99.90
7498;DHT22;3790;48.806;9.140;2023-04-15T03:05:29;3.10;99.90
7498;DHT22;3790;48.806;9.140;2023-04-15T03:10:29;3.10;99.90
7498;DHT22;3790;48.806;9.140;2023-04-15T03:15:31;2.90;99.90
7498;DHT22;3790;48.806;9.140;2023-04-15T03:20:32;2.80;99.90
7498;DHT22;3790;48.806;9.140;2023-04-15T03:25:32;2.70;99.90
7498;DHT22;3790;48.806;9.140;2023-04-15T03:30:33;2.60;99.90
7498;DHT22;3790;48.806;9.140;2023-04-15T03:35:34;2.50;99.90
7498;DHT22;3790;48.806;9.140;2023-04-15T03:40:34;2.50;99.90
7498;DHT22;3790;48.806;9.140;2023-04-15T03:45:35;2.50;99.90
7498;DHT22;3790;48.806;9.140;2023-04-15T03:50:35;2.40;99.90
7498;DHT22;3790;48.806;9.140;2023-04-15T03:55:36;2.40;99.90
7498;DHT22;3790;48.806;9.140;2023-04-15T04:00:38;2.30;99.90
7498;DHT22;3790;48.806;9.140;2023-04-15T04:05:38;2.30;99.90
7498;DHT22;3790;48.806;9.140;2023-04-15T04:10:41;2.20;99.90
7498;DHT22;3790;48.806;9.140;2023-04-15T04:15:41;2.30;99.90
7498;DHT22;3790;48.806;9.140;2023-04-15T04:20:42;2.20;99.90
7498;DHT22;3790;48.806;9.140;2023-04-15T04:25:43;2.30;99.90
7498;DHT22;3790;48.806;9.140;2023-04-15T04:30:43;2.20;99.90
7498;DHT22;3790;48.806;9.140;2023-04-15T04:35:44;2.30;99.90
7498;DHT22;3790;48.806;9.140;2023-04-15T04:40:44;2.30;99.90
7498;DHT22;3790;48.806;9.140;2023-04-15T04:45:45;2.20;99.90
7498;DHT22;3790;48.806;9.140;2023-04-15T04:50:45;2.30;99.90
7498;DHT22;3790;48.806;9.140;2023-04-15T04:55:46;2.40;99.90
7498;DHT22;3790;48.806;9.140;2023-04-15T05:00:46;2.40;99.90
7498;DHT22;3790;48.806;9.140;2023-04-15T05:05:47;2.40;99.90
7498;DHT22;3790;48.806;9.140;2023-04-15T05:10:48;2.30;99.90
7498;DHT22;3790;48.806;9.140;2023-04-15T05:15:49;2.30;99.90
7498;DHT22;3790;48.806;9.140;2023-04-15T05:20:49;2.40;99.90
7498;DHT22;3790;48.806;9.140;2023-04-15T05:25:50;2.60;99.90
7498;DHT22;3790;48.806;9.140;2023-04-15T05:30:50;2.70;99.90
7498;DHT22;3790;48.806;9.140;2023-04-15T05:35:51;2.90;99.90
7498;DHT22;3790;48.806;9.140;2023-04-15T05:40:51;3.10;99.90
7498;DHT22;3790;48.806;9.140;2023-04-15T05:45:52;3.40;99.90
7498;DHT22;3790;48.806;9.140;2023-04-15T05:50:52;3.70;99.90
7498;DHT22;3790;48.806;9.140;2023-04-15T05:55:53;4.00;99.90
7498;DHT22;3790;48.806;9.140;2023-04-15T06:00:53;4.40;99.90
7498;DHT22;3790;48.806;9.140;2023-04-15T06:05:54;4.80;99.90
7498;DHT22;3790;48.806;9.140;2023-04-15T06:10:54;5.10;99.90
7498;DHT22;3790;48.806;9.140;2023-04-15T06:15:55;5.30;99.90
7498;DHT22;3790;48.806;9.140;2023-04-15T06:20:56;5.60;99.90
7498;DHT22;3790;48.806;9.140;2023-04-15T06:25:56;6.00;99.90
7498;DHT22;3790;48.806;9.140;2023-04-15T06:30:57;6.30;99.90
7498;DHT22;3790;48.806;9.140;2023-04-15T06:35:57;6.60;99.90
7498;DHT22;3790;48.806;9.140;2023-04-15T06:40:58;7.00;99.90
7498;DHT22;3790;48.806;9.140;2023-04-15T06:45:58;7.40;99.90
7498;DHT22;3790;48.806;9.140;2023-04-15T06:50:59;7.80;99.90
7498;DHT22;3790;48.806;9.140;2023-04-15T06:56:00;8.10;99.90
7498;DHT22;3790;48.806;9.140;2023-04-15T07:01:01;8.40;99.90
7498;DHT22;3790;48.806;9.140;2023-04-15T07:06:02;8.50;99.90
7498;DHT22;3790;48.806;9.140;2023-04-15T07:11:06;8.70;99.90
7498;DHT22;3790;48.806;9.140;2023-04-15T07:16:06;9.00;99.90
7498;DHT22;3790;48.806;9.140;2023-04-15T07:21:08;9.10;99.90
7498;DHT22;3790;48.806;9.140;2023-04-15T07:26:09;9.20;99.90
7498;DHT22;3790;48.806;9.140;2023-04-15T07:31:10;9.50;99.90
7498;DHT22;3790;48.806;9.140;2023-04-15T07:36:11;9.80;99.90
7498;DHT22;3790;48.806;9.140;2023-04-15T07:41:12;10.20;99.90
7498;DHT22;3790;48.806;9.140;2023-04-15T07:46:13;10.80;99.90
7498;DHT22;3790;48.806;9.140;2023-04-15T07:51:13;11.40;99.90
7498;DHT22;3790;48.806;9.140;2023-04-15T07:56:14;11.20;99.90
7498;DHT22;3790;48.806;9.140;2023-04-15T08:01:15;11.10;99.90
7498;DHT22;3790;48.806;9.140;2023-04-15T08:06:15;11.20;99.90
7498;DHT22;3790;48.806;9.140;2023-04-15T08:11:16;11.30;99.90
7498;DHT22;3790;48.806;9.140;2023-04-15T08:16:22;11.60;99.90
7498;DHT22;3790;48.806;9.140;2023-04-15T08:21:24;12.00;99.90
7498;DHT22;3790;48.806;9.140;2023-04-15T08:26:24;12.40;99.90
7498;DHT22;3790;48.806;9.140;2023-04-15T08:31:26;12.80;99.90
7498;DHT22;3790;48.806;9.140;2023-04-15T08:36:29;13.20;99.90
7498;DHT22;3790;48.806;9.140;2023-04-15T08:41:39;13.40;99.90
7498;DHT22;3790;48.806;9.140;2023-04-15T08:46:40;13.20;99.90
7498;DHT22;3790;48.806;9.140;2023-04-15T08:51:42;13.40;99.90
7498;DHT22;3790;48.806;9.140;2023-04-15T08:56:43;13.50;99.90
7498;DHT22;3790;48.806;9.140;2023-04-15T09:01:44;13.70;99.90
7498;DHT22;3790;48.806;9.140;2023-04-15T09:06:46;14.10;99.90
7498;DHT22;3790;48.806;9.140;2023-04-15T09:11:46;14.50;99.90
7498;DHT22;3790;48.806;9.140;2023-04-15T09:16:57;14.50;99.90
7498;DHT22;3790;48.806;9.140;2023-04-15T09:21:58;14.30;99.90
7498;DHT22;3790;48.806;9.140;2023-04-15T09:26:59;14.10;99.90
7498;DHT22;3790;48.806;9.140;2023-04-15T09:32:10;14.30;99.90
7498;DHT22;3790;48.806;9.140;2023-04-15T09:37:11;14.20;99.90
7498;DHT22;3790;48.806;9.140;2023-04-15T09:42:15;14.90;99.90
7498;DHT22;3790;48.806;9.140;2023-04-15T09:47:29;15.30;99.90
7498;DHT22;3790;48.806;9.140;2023-04-15T09:52:30;15.10;99.50
7498;DHT22;3790;48.806;9.140;2023-04-15T09:57:35;15.30;99.90
7498;DHT22;3790;48.806;9.140;2023-04-15T10:02:37;15.30;99.80
7498;DHT22;3790;48.806;9.140;2023-04-15T10:07:39;15.90;99.70
7498;DHT22;3790;48.806;9.140;2023-04-15T10:12:42;15.50;99.40
7498;DHT22;3790;48.806;9.140;2023-04-15T10:17:44;15.60;99.20
7498;DHT22;3790;48.806;9.140;2023-04-15T10:22:45;16.20;98.40
7498;DHT22;3790;48.806;9.140;2023-04-15T10:27:46;16.20;98.00
7498;DHT22;3790;48.806;9.140;2023-04-15T10:32:48;16.10;98.60
7498;DHT22;3790;48.806;9.140;2023-04-15T10:37:49;16.10;98.80
7498;DHT22;3790;48.806;9.140;2023-04-15T10:42:50;16.00;98.50
7498;DHT22;3790;48.806;9.140;2023-04-15T10:47:53;16.10;98.50
7498;DHT22;3790;48.806;9.140;2023-04-15T10:52:55;16.00;96.90
7498;DHT22;3790;48.806;9.140;2023-04-15T10:58:00;15.70;97.50
7498;DHT22;3790;48.806;9.140;2023-04-15T11:03:05;15.00;97.50
7498;DHT22;3790;48.806;9.140;2023-04-15T11:08:08;14.50;99.70
7498;DHT22;3790;48.806;9.140;2023-04-15T11:18:22;15.90;97.00
7498;DHT22;3790;48.806;9.140;2023-04-15T11:23:43;18.30;93.00
7498;DHT22;3790;48.806;9.140;2023-04-15T11:28:46;20.70;91.40
7498;DHT22;3790;48.806;9.140;2023-04-15T11:33:56;19.30;89.30
7498;DHT22;3790;48.806;9.140;2023-04-15T11:38:58;19.30;90.20
7498;DHT22;3790;48.806;9.140;2023-04-15T11:43:59;16.10;93.30
7498;DHT22;3790;48.806;9.140;2023-04-15T11:49:00;14.60;97.00
7498;DHT22;3790;48.806;9.140;2023-04-15T11:54:00;14.60;98.70
7498;DHT22;3790;48.806;9.140;2023-04-15T11:59:02;15.90;98.00
7498;DHT22;3790;48.806;9.140;2023-04-15T12:04:10;17.20;96.10
7498;DHT22;3790;48.806;9.140;2023-04-15T12:09:12;17.20;94.90
7498;DHT22;3790;48.806;9.140;2023-04-15T12:14:26;16.20;94.50
7498;DHT22;3790;48.806;9.140;2023-04-15T12:19:39;16.60;94.20
7498;DHT22;3790;48.806;9.140;2023-04-15T12:24:42;17.00;92.30
7498;DHT22;3790;48.806;9.140;2023-04-15T12:29:43;16.50;95.00
7498;DHT22;3790;48.806;9.140;2023-04-15T12:34:49;14.30;99.20
7498;DHT22;3790;48.806;9.140;2023-04-15T12:39:50;12.00;99.90
7498;DHT22;3790;48.806;9.140;2023-04-15T12:44:51;10.80;99.90
7498;DHT22;3790;48.806;9.140;2023-04-15T12:49:51;10.80;99.90
7498;DHT22;3790;48.806;9.140;2023-04-15T12:54:52;10.70;99.90
7498;DHT22;3790;48.806;9.140;2023-04-15T12:59:53;11.40;99.90
7498;DHT22;3790;48.806;9.140;2023-04-15T13:04:54;13.00;99.90
7498;DHT22;3790;48.806;9.140;2023-04-15T13:09:54;14.00;99.90
7498;DHT22;3790;48.806;9.140;2023-04-15T13:14:56;15.10;99.90
7498;DHT22;3790;48.806;9.140;2023-04-15T13:19:59;16.30;99.90
7498;DHT22;3790;48.806;9.140;2023-04-15T13:24:59;15.80;99.90
7498;DHT22;3790;48.806;9.140;2023-04-15T13:30:00;14.90;99.90
7498;DHT22;3790;48.806;9.140;2023-04-15T13:35:00;14.50;99.90
7498;DHT22;3790;48.806;9.140;2023-04-15T13:40:01;13.80;99.20
7498;DHT22;3790;48.806;9.140;2023-04-15T13:45:02;14.00;98.80
7498;DHT22;3790;48.806;9.140;2023-04-15T13:50:03;15.10;96.40
7498;DHT22;3790;48.806;9.140;2023-04-15T13:55:04;15.60;94.10
7498;DHT22;3790;48.806;9.140;2023-04-15T14:00:05;15.10;93.70
7498;DHT22;3790;48.806;9.140;2023-04-15T14:05:07;14.00;95.10
7498;DHT22;3790;48.806;9.140;2023-04-15T14:10:08;13.10;96.20
7498;DHT22;3790;48.806;9.140;2023-04-15T14:15:08;12.50;97.30
7498;DHT22;3790;48.806;9.140;2023-04-15T14:20:09;12.40;94.60
7498;DHT22;3790;48.806;9.140;2023-04-15T14:25:10;12.40;94.30
7498;DHT22;3790;48.806;9.140;2023-04-15T14:30:11;12.30;95.00
7498;DHT22;3790;48.806;9.140;2023-04-15T14:35:11;12.20;96.20
7498;DHT22;3790;48.806;9.140;2023-04-15T14:40:12;12.10;96.50
7498;DHT22;3790;48.806;9.140;2023-04-15T14:45:12;11.90;97.00
7498;DHT22;3790;48.806;9.140;2023-04-15T14:50:13;11.80;98.50
7498;DHT22;3790;48.806;9.140;2023-04-15T14:55:13;11.50;98.50
7498;DHT22;3790;48.806;9.140;2023-04-15T15:03:13;10.60;99.90
7498;DHT22;3790;48.806;9.140;2023-04-15T15:08:14;10.50;99.90
7498;DHT22;3790;48.806;9.140;2023-04-15T15:13:14;10.20;99.90
7498;DHT22;3790;48.806;9.140;2023-04-15T15:18:16;9.70;99.90
7498;DHT22;3790;48.806;9.140;2023-04-15T15:23:17;9.60;99.90
7498;DHT22;3790;48.806;9.140;2023-04-15T15:28:18;9.90;99.90
7498;DHT22;3790;48.806;9.140;2023-04-15T15:33:19;10.10;99.90
7498;DHT22;3790;48.806;9.140;2023-04-15T15:38:21;10.20;99.90
7498;DHT22;3790;48.806;9.140;2023-04-15T15:43:21;10.20;99.90
7498;DHT22;3790;48.806;9.140;2023-04-15T15:48:22;10.50;99.90
7498;DHT22;3790;48.806;9.140;2023-04-15T15:53:23;10.60;99.90
7498;DHT22;3790;48.806;9.140;2023-04-15T15:58:25;10.50;99.90
7498;DHT22;3790;48.806;9.140;2023-04-15T16:03:25;10.50;99.90
7498;DHT22;3790;48.806;9.140;2023-04-15T16:08:26;10.90;99.90
7498;DHT22;3790;48.806;9.140;2023-04-15T16:13:26;10.80;99.90
7498;DHT22;3790;48.806;9.140;2023-04-15T16:18:27;10.40;99.90
7498;DHT22;3790;48.806;9.140;2023-04-15T16:23:27;9.60;99.90
7498;DHT22;3790;48.806;9.140;2023-04-15T16:28:28;9.00;99.90
7498;DHT22;3790;48.806;9.140;2023-04-15T16:33:29;8.70;99.90
7498;DHT22;3790;48.806;9.140;2023-04-15T16:38:29;8.70;99.90
7498;DHT22;3790;48.806;9.140;2023-04-15T16:43:30;8.80;99.90
7498;DHT22;3790;48.806;9.140;2023-04-15T16:48:30;8.70;99.90
7498;DHT22;3790;48.806;9.140;2023-04-15T16:53:31;8.60;99.90
7498;DHT22;3790;48.806;9.140;2023-04-15T16:58:31;8.40;99.90
7498;DHT22;3790;48.806;9.140;2023-04-15T17:03:32;8.30;99.90
7498;DHT22;3790;48.806;9.140;2023-04-15T17:08:32;8.20;99.90
7498;DHT22;3790;48.806;9.140;2023-04-15T17:13:33;8.00;99.90
7498;DHT22;3790;48.806;9.140;2023-04-15T17:18:33;7.80;99.90
7498;DHT22;3790;48.806;9.140;2023-04-15T17:23:34;7.80;99.90
7498;DHT22;3790;48.806;9.140;2023-04-15T17:28:35;7.70;99.90
7498;DHT22;3790;48.806;9.140;2023-04-15T17:33:35;7.60;99.90
7498;DHT22;3790;48.806;9.140;2023-04-15T17:38:36;7.60;99.90
7498;DHT22;3790;48.806;9.140;2023-04-15T17:43:37;7.60;99.90
7498;DHT22;3790;48.806;9.140;2023-04-15T17:48:37;7.50;99.90
7498;DHT22;3790;48.806;9.140;2023-04-15T17:53:38;7.50;99.90
7498;DHT22;3790;48.806;9.140;2023-04-15T17:58:39;7.50;99.90
7498;DHT22;3790;48.806;9.140;2023-04-15T18:03:39;7.50;99.90
7498;DHT22;3790;48.806;9.140;2023-04-15T18:08:40;7.50;99.90
7498;DHT22;3790;48.806;9.140;2023-04-15T18:13:40;7.40;99.90
7498;DHT22;3790;48.806;9.140;2023-04-15T18:18:40;7.40;99.90
7498;DHT22;3790;48.806;9.140;2023-04-15T18:23:41;7.30;99.90
7498;DHT22;3790;48.806;9.140;2023-04-15T18:28:42;7.40;99.90
7498;DHT22;3790;48.806;9.140;2023-04-15T18:33:42;7.40;99.90
7498;DHT22;3790;48.806;9.140;2023-04-15T18:38:44;7.40;99.90
7498;DHT22;3790;48.806;9.140;2023-04-15T18:43:45;7.30;99.90
7498;DHT22;3790;48.806;9.140;2023-04-15T18:48:45;7.20;99.90
7498;DHT22;3790;48.806;9.140;2023-04-15T18:53:46;7.20;99.90
7498;DHT22;3790;48.806;9.140;2023-04-15T18:58:46;7.20;99.90
7498;DHT22;3790;48.806;9.140;2023-04-15T19:03:47;7.10;99.90
7498;DHT22;3790;48.806;9.140;2023-04-15T19:08:47;7.10;99.90
7498;DHT22;3790;48.806;9.140;2023-04-15T19:13:48;7.10;99.90
7498;DHT22;3790;48.806;9.140;2023-04-15T19:18:48;7.80;99.90
7498;DHT22;3790;48.806;9.140;2023-04-15T19:23:49;7.10;99.90
7498;DHT22;3790;48.806;9.140;2023-04-15T19:28:49;7.10;99.90
7498;DHT22;3790;48.806;9.140;2023-04-15T19:33:52;7.10;99.90
7498;DHT22;3790;48.806;9.140;2023-04-15T19:38:53;7.10;99.90
7498;DHT22;3790;48.806;9.140;2023-04-15T19:43:53;7.10;99.90
7498;DHT22;3790;48.806;9.140;2023-04-15T19:48:54;7.10;99.90
7498;DHT22;3790;48.806;9.140;2023-04-15T19:53:55;7.10;99.90
7498;DHT22;3790;48.806;9.140;2023-04-15T19:58:56;7.10;99.90
7498;DHT22;3790;48.806;9.140;2023-04-15T20:03:56;7.10;99.90
7498;DHT22;3790;48.806;9.140;2023-04-15T20:08:57;7.10;99.90
7498;DHT22;3790;48.806;9.140;2023-04-15T20:13:57;7.00;99.90
7498;DHT22;3790;48.806;9.140;2023-04-15T20:18:58;7.00;99.90
7498;DHT22;3790;48.806;9.140;2023-04-15T20:24:03;7.10;99.90
7498;DHT22;3790;48.806;9.140;2023-04-15T20:29:04;7.10;99.90
7498;DHT22;3790;48.806;9.140;2023-04-15T20:34:04;7.00;99.90
7498;DHT22;3790;48.806;9.140;2023-04-15T20:39:05;7.00;99.90
7498;DHT22;3790;48.806;9.140;2023-04-15T20:44:06;7.00;99.90
7498;DHT22;3790;48.806;9.140;2023-04-15T20:49:06;7.00;99.90
7498;DHT22;3790;48.806;9.140;2023-04-15T20:54:07;7.00;99.90
7498;DHT22;3790;48.806;9.140;2023-04-15T20:59:07;7.00;99.90
7498;DHT22;3790;48.806;9.140;2023-04-15T21:04:08;7.00;99.90
7498;DHT22;3790;48.806;9.140;2023-04-15T21:09:08;7.00;99.90
7498;DHT22;3790;48.806;9.140;2023-04-15T21:14:09;7.10;99.90
7498;DHT22;3790;48.806;9.140;2023-04-15T21:19:09;7.10;99.90
7498;DHT22;3790;48.806;9.140;2023-04-15T21:24:10;7.00;99.90
7498;DHT22;3790;48.806;9.140;2023-04-15T21:29:10;7.00;99.90
7498;DHT22;3790;48.806;9.140;2023-04-15T21:34:11;7.00;99.90
7498;DHT22;3790;48.806;9.140;2023-04-15T21:39:11;7.00;99.90
7498;DHT22;3790;48.806;9.140;2023-04-15T21:44:12;7.00;99.90
7498;DHT22;3790;48.806;9.140;2023-04-15T21:49:13;7.10;99.90
7498;DHT22;3790;48.806;9.140;2023-04-15T21:54:13;7.10;99.90
7498;DHT22;3790;48.806;9.140;2023-04-15T21:59:14;7.10;99.90
7498;DHT22;3790;48.806;9.140;2023-04-15T22:04:14;7.10;99.90
7498;DHT22;3790;48.806;9.140;2023-04-15T22:09:15;7.10;99.90
7498;DHT22;3790;48.806;9.140;2023-04-15T22:14:16;7.10;99.90
7498;DHT22;3790;48.806;9.140;2023-04-15T22:19:16;7.10;99.90
7498;DHT22;3790;48.806;9.140;2023-04-15T22:24:17;7.20;99.90
7498;DHT22;3790;48.806;9.140;2023-04-15T22:29:17;7.10;99.90
7498;DHT22;3790;48.806;9.140;2023-04-15T22:34:18;7.00;99.90
7498;DHT22;3790;48.806;9.140;2023-04-15T22:39:20;7.10;99.90
7498;DHT22;3790;48.806;9.140;2023-04-15T22:44:21;7.10;99.90
7498;DHT22;3790;48.806;9.140;2023-04-15T22:49:21;7.10;99.90
7498;DHT22;3790;48.806;9.140;2023-04-15T22:54:22;7.00;99.90
7498;DHT22;3790;48.806;9.140;2023-04-15T22:59:24;7.00;99.90
7498;DHT22;3790;48.806;9.140;2023-04-15T23:04:24;7.10;99.90
7498;DHT22;3790;48.806;9.140;2023-04-15T23:09:25;7.00;99.90
7498;DHT22;3790;48.806;9.140;2023-04-15T23:14:26;7.00;99.90
7498;DHT22;3790;48.806;9.140;2023-04-15T23:19:27;7.00;99.90
7498;DHT22;3790;48.806;9.140;2023-04-15T23:24:27;7.10;99.90
7498;DHT22;3790;48.806;9.140;2023-04-15T23:29:28;7.00;99.90
7498;DHT22;3790;48.806;9.140;2023-04-15T23:34:28;7.00;99.90
7498;DHT22;3790;48.806;9.140;2023-04-15T23:39:29;6.90;99.90
7498;DHT22;3790;48.806;9.140;2023-04-15T23:44:29;7.00;99.90
7498;DHT22;3790;48.806;9.140;2023-04-15T23:49:30;7.00;99.90
7498;DHT22;3790;48.806;9.140;2023-04-15T23:54:30;7.00;99.90
